KWE weather

Longdongbao Airport
Guiyang, Guizhou Province, China

Public forecast

Using degrees Celsius for public forecast. Weather courtesy of forecast.io.

METAR (pilot weather report)

Retrieved 2019/07/24 07:00 UTC (48 minutes ago):

ZUGY 240700Z 28002MPS 210V310 9999 BKN030 24/20 Q1009 RETSRA NOSIG

TAF (pilot weather forecast)

Retrieved 2019/07/24 06:00 UTC (2 hours ago):

TAF ZUGY 240230Z 2406/2506 17004MPS 6000 FEW030 TX31/2407Z TN21/2422Z TEMPO 2407/2411 -TSRA FEW030CB